createdAt,value
2023-01-25T00:00:45.495Z,56.3
2023-01-25T00:01:46.594Z,55.9
2023-01-25T00:02:47.620Z,56
2023-01-25T00:03:48.496Z,56.3
2023-01-25T00:04:49.558Z,56.6
2023-01-25T00:05:50.774Z,56.7
2023-01-25T00:06:51.652Z,56.9
2023-01-25T00:07:52.697Z,56.9
2023-01-25T00:08:53.661Z,56.8
2023-01-25T00:09:54.671Z,56.7
2023-01-25T00:10:57.606Z,56.8
2023-01-25T00:11:56.747Z,57.4
2023-01-25T00:12:57.500Z,57.6
2023-01-25T00:13:58.707Z,57.4
2023-01-25T00:14:59.727Z,57.2
2023-01-25T00:16:00.688Z,57
2023-01-25T00:17:01.755Z,56.8
2023-01-25T00:18:02.709Z,56.6
2023-01-25T00:19:03.648Z,56.5
2023-01-25T00:20:04.679Z,56.4
2023-01-25T00:21:05.751Z,56.1
2023-01-25T00:22:06.741Z,56.3
2023-01-25T00:23:07.733Z,56.4
2023-01-25T00:24:08.533Z,56.3
2023-01-25T00:25:10.091Z,56.3
2023-01-25T00:26:10.735Z,56.3
2023-01-25T00:27:11.797Z,56.1
2023-01-25T00:28:12.648Z,56
2023-01-25T00:29:13.587Z,56
2023-01-25T00:30:14.570Z,55.8
2023-01-25T00:31:15.883Z,55.6
2023-01-25T00:32:16.818Z,55.8
2023-01-25T00:33:17.554Z,55.8
2023-01-25T00:34:18.867Z,55.7
2023-01-25T00:35:19.710Z,55.6
2023-01-25T00:36:20.648Z,55.5
2023-01-25T00:37:21.701Z,55.5
2023-01-25T00:38:22.508Z,55.6
2023-01-25T00:39:23.477Z,55.5
2023-01-25T00:40:24.568Z,55.5
2023-01-25T00:41:25.708Z,55.7
2023-01-25T00:42:26.722Z,55.7
2023-01-25T00:43:27.708Z,55.5
2023-01-25T00:44:28.737Z,55.3
2023-01-25T00:45:29.488Z,55.3
2023-01-25T00:46:30.548Z,55.4
2023-01-25T00:47:31.628Z,55.5
2023-01-25T00:48:32.709Z,55.7
2023-01-25T00:49:33.620Z,55.8
2023-01-25T00:50:34.547Z,55.8
2023-01-25T00:51:35.728Z,55.6
2023-01-25T00:52:36.551Z,55.6
2023-01-25T00:53:37.523Z,55.9
2023-01-25T00:54:38.587Z,56
2023-01-25T00:55:39.667Z,56.1
2023-01-25T00:56:40.667Z,56.1
2023-01-25T00:57:41.544Z,56.1
2023-01-25T00:58:42.515Z,56
2023-01-25T00:59:43.508Z,56.1
2023-01-25T01:00:44.479Z,55.9
2023-01-25T01:01:45.533Z,55.8
2023-01-25T01:02:46.531Z,55.7
2023-01-25T01:03:47.597Z,55.6
2023-01-25T01:04:48.658Z,55.6
2023-01-25T01:05:49.690Z,55.5
2023-01-25T01:06:50.708Z,55.5
2023-01-25T01:07:51.753Z,55.5
2023-01-25T01:08:52.768Z,55.3
2023-01-25T01:09:53.667Z,54.8
2023-01-25T01:10:54.648Z,54.7
2023-01-25T01:11:55.707Z,54.6
2023-01-25T01:12:56.645Z,54.5
2023-01-25T01:13:57.523Z,54.5
2023-01-25T01:14:58.606Z,54.6
2023-01-25T01:15:59.547Z,54.9
2023-01-25T01:17:00.590Z,55.1
2023-01-25T01:18:01.563Z,55
2023-01-25T01:19:02.520Z,54.7
2023-01-25T01:20:03.452Z,54.7
2023-01-25T01:21:04.530Z,54.2
2023-01-25T01:22:05.589Z,54.4
2023-01-25T01:23:06.548Z,54.5
2023-01-25T01:24:07.697Z,54.8
2023-01-25T01:25:08.902Z,55
2023-01-25T01:26:09.508Z,54.7
2023-01-25T01:27:10.540Z,54.7
2023-01-25T01:28:11.577Z,54.9
2023-01-25T01:29:12.588Z,55.1
2023-01-25T01:30:13.568Z,55.1
2023-01-25T01:31:14.451Z,55.1
2023-01-25T01:32:15.834Z,55.3
2023-01-25T01:33:16.509Z,55.7
2023-01-25T01:34:17.768Z,55.7
2023-01-25T01:35:18.668Z,55.7
2023-01-25T01:36:19.741Z,55.7
2023-01-25T01:37:20.649Z,55.7
2023-01-25T01:38:21.727Z,55.5
2023-01-25T01:39:22.728Z,55.3
2023-01-25T01:40:23.727Z,54.4
2023-01-25T01:41:24.761Z,55.2
2023-01-25T01:42:25.728Z,55.2
2023-01-25T01:43:26.804Z,55
2023-01-25T01:44:27.757Z,54.7
2023-01-25T01:45:28.757Z,54.3
2023-01-25T01:46:29.727Z,54.4
2023-01-25T01:47:30.728Z,54.5
2023-01-25T01:48:31.727Z,54.3
2023-01-25T01:49:32.873Z,54.4
2023-01-25T01:50:33.669Z,54.5
2023-01-25T01:51:34.570Z,54.7
2023-01-25T01:52:35.711Z,54.6
2023-01-25T01:53:36.770Z,54.7
2023-01-25T01:54:37.831Z,54.9
2023-01-25T01:55:38.666Z,54.8
2023-01-25T01:56:39.715Z,54.8
2023-01-25T01:57:40.806Z,55
2023-01-25T01:58:41.775Z,55.2
2023-01-25T01:59:42.749Z,55.3
2023-01-25T02:00:43.714Z,55.4
2023-01-25T02:01:44.768Z,55.5
2023-01-25T02:02:45.778Z,55.6
2023-01-25T02:06:00.623Z,55.3
2023-01-25T02:07:03.734Z,54.8
2023-01-25T02:08:04.763Z,54.8
2023-01-25T02:09:05.673Z,54.9
2023-01-25T02:10:06.742Z,55.1
2023-01-25T02:11:07.792Z,55.1
2023-01-25T02:12:08.779Z,55.3
2023-01-25T02:13:09.530Z,55.5
2023-01-25T02:14:10.522Z,55.3
2023-01-25T02:15:11.942Z,55
2023-01-25T02:16:12.679Z,54.9
2023-01-25T02:17:13.806Z,55
2023-01-25T02:18:14.563Z,55.4
2023-01-25T02:19:15.573Z,55.6
2023-01-25T02:20:16.543Z,55.6
2023-01-25T02:21:17.575Z,55.4
2023-01-25T02:22:18.570Z,55
2023-01-25T02:23:19.565Z,55
2023-01-25T02:24:20.588Z,54.9
2023-01-25T02:25:21.523Z,54.7
2023-01-25T02:26:22.572Z,54.6
2023-01-25T02:27:23.593Z,54.5
2023-01-25T02:28:24.499Z,54.2
2023-01-25T02:29:25.531Z,54.1
2023-01-25T02:30:26.574Z,54.4
2023-01-25T02:31:27.820Z,54.2
2023-01-25T02:32:28.578Z,54.5
2023-01-25T02:33:29.531Z,54.4
2023-01-25T02:34:30.586Z,54.4
2023-01-25T02:35:31.616Z,54.4
2023-01-25T02:36:32.714Z,54.5
2023-01-25T02:37:33.572Z,54.6
2023-01-25T02:38:34.574Z,54.7
2023-01-25T02:39:35.578Z,54.7
2023-01-25T02:40:36.572Z,54.5
2023-01-25T02:41:37.594Z,54.1
2023-01-25T02:42:38.595Z,54.3
2023-01-25T02:43:39.614Z,54.4
2023-01-25T02:44:40.562Z,54.4
2023-01-25T02:45:41.564Z,54.5
2023-01-25T02:46:42.575Z,54.4
2023-01-25T02:47:43.506Z,54.3
2023-01-25T02:48:44.792Z,54.4
2023-01-25T02:49:45.595Z,54.5
2023-01-25T02:50:46.785Z,54.6
2023-01-25T02:51:47.776Z,54.6
2023-01-25T02:52:48.613Z,54.8
2023-01-25T02:53:49.775Z,54.9
2023-01-25T02:54:50.778Z,55
2023-01-25T02:55:51.785Z,55.1
2023-01-25T02:56:52.855Z,55.2
2023-01-25T02:57:53.553Z,55
2023-01-25T02:58:54.595Z,55
2023-01-25T02:59:55.625Z,55
2023-01-25T03:00:56.576Z,55
2023-01-25T03:01:57.707Z,55
2023-01-25T03:02:58.640Z,54.9
2023-01-25T03:03:59.635Z,54.9
2023-01-25T03:05:00.572Z,54.7
2023-01-25T03:06:01.597Z,54.5
2023-01-25T03:07:02.611Z,54.5
2023-01-25T03:08:03.595Z,54.6
2023-01-25T03:09:04.657Z,54.7
2023-01-25T03:10:05.894Z,54.6
2023-01-25T03:11:06.773Z,54.6
2023-01-25T03:12:07.775Z,54.5
2023-01-25T03:13:08.647Z,54.4
2023-01-25T03:14:09.775Z,54.4
2023-01-25T03:15:10.919Z,54.4
2023-01-25T03:16:11.914Z,54.4
2023-01-25T03:17:12.765Z,54.4
2023-01-25T03:18:13.777Z,54.3
2023-01-25T03:19:14.739Z,54.4
2023-01-25T03:20:15.757Z,54.6
2023-01-25T03:21:16.600Z,54.7
2023-01-25T03:22:17.594Z,54.7
2023-01-25T03:23:18.673Z,54.8
2023-01-25T03:24:19.823Z,54.8
2023-01-25T03:25:20.775Z,54.7
2023-01-25T03:26:21.794Z,54.7
2023-01-25T03:27:22.642Z,54.7
2023-01-25T03:28:23.795Z,54.7
2023-01-25T03:29:24.850Z,54.6
2023-01-25T03:30:25.585Z,54.5
2023-01-25T03:31:26.680Z,54.4
2023-01-25T03:32:27.719Z,54.4
2023-01-25T03:33:28.601Z,54.3
2023-01-25T03:34:29.657Z,54.3
2023-01-25T03:35:30.595Z,54.2
2023-01-25T03:36:31.646Z,54.6
2023-01-25T03:37:32.874Z,54.6
2023-01-25T03:38:33.602Z,54.5
2023-01-25T03:39:37.671Z,54.5
2023-01-25T03:40:38.630Z,54.6
2023-01-25T03:41:39.816Z,54.6
2023-01-25T03:42:40.747Z,54.5
2023-01-25T03:43:41.650Z,54.4
2023-01-25T03:44:42.596Z,54.3
2023-01-25T03:45:43.628Z,54.3
2023-01-25T03:46:44.782Z,54.2
2023-01-25T03:47:45.629Z,53.9
2023-01-25T03:48:46.586Z,53.9
2023-01-25T03:49:47.640Z,54.1
2023-01-25T03:50:48.796Z,54.2
2023-01-25T03:51:49.750Z,54.3
2023-01-25T03:52:50.779Z,54.2
2023-01-25T03:53:51.794Z,54.5
2023-01-25T03:54:52.736Z,54.8
2023-01-25T03:55:53.735Z,55.3
2023-01-25T03:56:54.754Z,55.6
2023-01-25T03:57:55.697Z,55.7
2023-01-25T03:58:56.573Z,56.1
2023-01-25T03:59:57.602Z,56.6
2023-01-25T04:00:58.798Z,56.9
2023-01-25T04:01:59.693Z,57.2
2023-01-25T04:03:00.654Z,57.1
2023-01-25T04:04:01.604Z,56.9
2023-01-25T04:05:02.653Z,56.7
2023-01-25T04:06:03.638Z,56.5
2023-01-25T04:07:04.608Z,56.4
2023-01-25T04:08:05.702Z,56
2023-01-25T04:09:06.611Z,55.5
2023-01-25T04:10:07.654Z,55.1
2023-01-25T04:11:08.657Z,54.1
2023-01-25T04:12:09.636Z,54.5
2023-01-25T04:13:10.663Z,54.5
2023-01-25T04:14:11.614Z,54.4
2023-01-25T04:15:12.648Z,54.3
2023-01-25T04:16:13.874Z,54.6
2023-01-25T04:17:14.745Z,54.7
2023-01-25T04:18:15.798Z,55.1
2023-01-25T04:19:16.783Z,55.4
2023-01-25T04:20:17.840Z,55.5
2023-01-25T04:21:18.903Z,55.6
2023-01-25T04:22:19.673Z,55.6
2023-01-25T04:23:20.834Z,55.5
2023-01-25T04:24:21.917Z,55.3
2023-01-25T04:25:22.848Z,55.4
2023-01-25T04:26:23.633Z,55.5
2023-01-25T04:27:24.678Z,55.2
2023-01-25T04:28:25.635Z,55.7
2023-01-25T04:29:39.982Z,55.8
2023-01-25T04:30:27.717Z,55.6
2023-01-25T04:31:28.781Z,55.8
2023-01-25T04:32:29.972Z,55.9
2023-01-25T04:33:30.674Z,55.8
2023-01-25T04:34:31.699Z,55.6
2023-01-25T04:35:32.758Z,55.3
2023-01-25T04:36:33.621Z,55.2
2023-01-25T04:37:34.679Z,55.2
2023-01-25T04:38:35.857Z,55.1
2023-01-25T04:39:36.875Z,55
2023-01-25T04:40:37.820Z,54.8
2023-01-25T04:41:38.800Z,54.6
2023-01-25T04:42:39.825Z,54.4
2023-01-25T04:43:40.868Z,54.3
2023-01-25T04:44:41.782Z,54.2
2023-01-25T04:45:42.872Z,54.3
2023-01-25T04:46:43.783Z,54.4
2023-01-25T04:47:44.818Z,54.4
2023-01-25T04:48:45.733Z,54.4
2023-01-25T04:49:46.739Z,54.5
2023-01-25T04:50:47.709Z,54.9
2023-01-25T04:51:48.718Z,55.3
2023-01-25T04:52:49.674Z,55.6
2023-01-25T04:53:50.716Z,55.6
2023-01-25T04:54:51.674Z,55.7
2023-01-25T04:55:52.857Z,55.6
2023-01-25T04:56:53.732Z,55.5
2023-01-25T04:57:54.802Z,55.4
2023-01-25T04:58:55.844Z,55.2
2023-01-25T04:59:56.634Z,55.2
2023-01-25T05:00:57.715Z,55.2
2023-01-25T05:01:58.881Z,55.1
2023-01-25T05:02:59.870Z,55
2023-01-25T05:04:00.815Z,54.9
2023-01-25T05:05:01.821Z,54.6
2023-01-25T05:06:02.751Z,54.5
2023-01-25T05:07:03.617Z,54.6
2023-01-25T05:08:04.639Z,54.7
2023-01-25T05:09:05.862Z,55.1
2023-01-25T05:10:06.877Z,55.2
2023-01-25T05:11:07.904Z,55.2
2023-01-25T05:12:08.855Z,55
2023-01-25T05:13:09.814Z,55
2023-01-25T05:14:10.775Z,55
2023-01-25T05:15:12.101Z,54.9
2023-01-25T05:16:12.781Z,54.5
2023-01-25T05:17:13.666Z,54.6
2023-01-25T05:18:14.695Z,54.7
2023-01-25T05:19:15.895Z,54.7
2023-01-25T05:20:16.855Z,54.4
2023-01-25T05:21:17.679Z,54.3
2023-01-25T05:22:18.917Z,54.3
2023-01-25T05:23:19.638Z,54.2
2023-01-25T05:24:20.854Z,53.9
2023-01-25T05:25:21.855Z,53.8
2023-01-25T05:26:22.879Z,53.7
2023-01-25T05:27:23.855Z,53.3
2023-01-25T05:28:24.795Z,53.6
2023-01-25T05:29:25.896Z,53.7
2023-01-25T05:30:26.887Z,53.7
2023-01-25T05:31:27.952Z,53.7
2023-01-25T05:32:28.780Z,53.7
2023-01-25T05:33:29.800Z,53.7
2023-01-25T05:34:30.835Z,53.8
2023-01-25T05:35:31.676Z,53.8
2023-01-25T05:36:32.844Z,53.8
2023-01-25T05:37:33.820Z,53.9
2023-01-25T05:38:34.841Z,54.1
2023-01-25T05:39:35.915Z,54.2
2023-01-25T05:40:36.751Z,54.3
2023-01-25T05:41:37.758Z,54.3
2023-01-25T05:42:38.840Z,54.3
2023-01-25T05:43:39.877Z,54.3
2023-01-25T05:44:40.888Z,54.3
2023-01-25T05:45:41.615Z,54.4
2023-01-25T05:46:42.703Z,54.2
2023-01-25T05:47:43.861Z,54.1
2023-01-25T05:48:44.878Z,54
2023-01-25T05:49:45.716Z,53.9
2023-01-25T05:50:46.624Z,53.9
2023-01-25T05:51:47.857Z,53.9
2023-01-25T05:52:48.665Z,53.8
2023-01-25T05:53:49.575Z,53.8
2023-01-25T05:54:50.735Z,53.8
2023-01-25T05:55:51.795Z,53.8
2023-01-25T05:56:52.721Z,53.8
2023-01-25T05:57:53.697Z,54
2023-01-25T05:58:54.640Z,54.1
2023-01-25T05:59:55.642Z,54.1
2023-01-25T06:00:56.615Z,53.2
2023-01-25T06:01:57.838Z,53.6
2023-01-25T06:02:59.122Z,53.4
2023-01-25T06:03:59.875Z,53.5
2023-01-25T06:05:00.924Z,53.6
2023-01-25T06:06:01.905Z,54
2023-01-25T06:07:02.813Z,53.7
2023-01-25T06:08:03.722Z,53.6
2023-01-25T06:09:04.635Z,53.4
2023-01-25T06:10:05.677Z,53.6
2023-01-25T06:11:06.721Z,53.6
2023-01-25T06:12:07.675Z,53.8
2023-01-25T06:13:08.607Z,53.8
2023-01-25T06:14:09.675Z,53.7
2023-01-25T06:15:11.181Z,53.7
2023-01-25T06:16:11.735Z,53.6
2023-01-25T06:17:12.697Z,53.7
2023-01-25T06:18:13.699Z,53.8
2023-01-25T06:19:14.807Z,54
2023-01-25T06:20:15.804Z,54.4
2023-01-25T06:21:16.974Z,54.6
2023-01-25T06:22:17.982Z,54.9
2023-01-25T06:23:18.742Z,54.9
2023-01-25T06:24:19.802Z,54.5
2023-01-25T06:25:20.914Z,54.7
2023-01-25T06:26:21.877Z,54.6
2023-01-25T06:27:22.919Z,54.4
2023-01-25T06:28:23.892Z,54.1
2023-01-25T06:29:24.818Z,54
2023-01-25T06:30:25.883Z,54
2023-01-25T06:31:27.032Z,54
2023-01-25T06:32:27.876Z,54
2023-01-25T06:33:28.738Z,53.9
2023-01-25T06:34:29.787Z,54.2
2023-01-25T06:35:30.774Z,54.5
2023-01-25T06:36:31.671Z,54.4
2023-01-25T06:37:32.717Z,54.4
2023-01-25T06:38:33.637Z,54.6
2023-01-25T06:39:34.854Z,54.6
2023-01-25T06:40:35.756Z,54.5
2023-01-25T06:41:36.654Z,54.2
2023-01-25T06:42:37.728Z,54.1
2023-01-25T06:43:41.505Z,54.1
2023-01-25T06:44:42.835Z,54.1
2023-01-25T06:45:43.803Z,53.9
2023-01-25T06:46:44.975Z,54
2023-01-25T06:47:45.917Z,54.1
2023-01-25T06:48:46.716Z,54
2023-01-25T06:49:47.789Z,53.9
2023-01-25T06:50:48.829Z,54
2023-01-25T06:51:49.847Z,54.3
2023-01-25T06:52:50.802Z,54.1
2023-01-25T06:53:51.896Z,54
2023-01-25T06:54:52.704Z,53.9
2023-01-25T06:55:53.694Z,53.8
2023-01-25T06:56:54.674Z,53.9
2023-01-25T06:57:55.893Z,53.9
2023-01-25T06:58:56.913Z,53.9
2023-01-25T06:59:57.944Z,54
2023-01-25T07:00:58.874Z,54
2023-01-25T07:01:59.954Z,53.7
2023-01-25T07:03:00.880Z,53.9
2023-01-25T07:04:02.019Z,54.1
2023-01-25T07:05:02.813Z,54.6
2023-01-25T07:06:03.864Z,54.6
2023-01-25T07:07:04.919Z,54.7
2023-01-25T07:08:05.817Z,54.3
2023-01-25T07:09:06.994Z,54.5
2023-01-25T07:10:07.857Z,54.6
2023-01-25T07:11:08.794Z,54.4
2023-01-25T07:12:09.834Z,54.6
2023-01-25T07:13:10.873Z,54.9
2023-01-25T07:14:11.707Z,55.1
2023-01-25T07:15:12.698Z,55.4
2023-01-25T07:16:13.869Z,55.4
2023-01-25T07:17:14.784Z,55.5
2023-01-25T07:18:16.819Z,55.8
2023-01-25T07:19:16.882Z,55.9
2023-01-25T07:20:17.933Z,56.1
2023-01-25T07:21:18.907Z,55.7
2023-01-25T07:22:19.874Z,55.7
2023-01-25T07:23:20.882Z,55.5
2023-01-25T07:24:21.960Z,55.4
2023-01-25T07:25:22.914Z,55.4
2023-01-25T07:26:23.856Z,55.6
2023-01-25T07:27:24.943Z,55.7
2023-01-25T07:28:25.766Z,55.7
2023-01-25T07:29:26.914Z,55.9
2023-01-25T07:30:27.920Z,56.2
2023-01-25T07:31:28.862Z,56.1
2023-01-25T07:32:29.834Z,55.9
2023-01-25T07:33:30.894Z,55.9
2023-01-25T07:34:31.860Z,56.1
2023-01-25T07:35:33.005Z,56.4
2023-01-25T07:36:33.880Z,56.8
2023-01-25T07:37:34.853Z,56.6
2023-01-25T07:38:35.703Z,56.2
2023-01-25T07:39:36.667Z,55.5
2023-01-25T07:40:37.759Z,55.5
2023-01-25T07:41:38.776Z,55.1
2023-01-25T07:42:39.873Z,55
2023-01-25T07:43:41.095Z,54.8
2023-01-25T07:44:41.747Z,54.6
2023-01-25T07:45:42.894Z,54.4
2023-01-25T07:46:43.764Z,53.7
2023-01-25T07:47:44.716Z,54
2023-01-25T07:48:45.897Z,54.3
2023-01-25T07:49:46.743Z,54.2
2023-01-25T07:50:47.761Z,54.2
2023-01-25T07:51:48.834Z,54.3
2023-01-25T07:52:49.855Z,54.3
2023-01-25T07:53:50.822Z,54
2023-01-25T07:54:51.697Z,54.1
2023-01-25T07:55:52.696Z,54.5
2023-01-25T07:56:53.797Z,54.6
2023-01-25T07:57:54.694Z,54.6
2023-01-25T07:58:55.744Z,54.5
2023-01-25T07:59:56.874Z,54.5
2023-01-25T08:00:57.699Z,54.7
2023-01-25T08:01:58.823Z,55.4
2023-01-25T08:02:59.693Z,55.7
2023-01-25T08:04:00.718Z,55.8
2023-01-25T08:05:01.728Z,55.6
2023-01-25T08:06:02.740Z,55.5
2023-01-25T08:07:03.739Z,55.3
2023-01-25T08:08:04.774Z,55.3
2023-01-25T08:09:05.714Z,55.3
2023-01-25T08:10:06.823Z,55.4
2023-01-25T08:11:07.784Z,55.4
2023-01-25T08:12:08.857Z,55.1
2023-01-25T08:13:09.753Z,54.8
2023-01-25T08:14:10.779Z,54.3
2023-01-25T08:15:12.069Z,54.1
2023-01-25T08:16:12.754Z,53.8
2023-01-25T08:17:13.933Z,53.7
2023-01-25T08:18:14.957Z,53.8
2023-01-25T08:19:15.714Z,53.7
2023-01-25T08:20:16.796Z,53.8
2023-01-25T08:21:17.819Z,54
2023-01-25T08:22:19.016Z,54.1
2023-01-25T08:23:19.881Z,54.2
2023-01-25T08:24:21.160Z,54.2
2023-01-25T08:25:21.677Z,54.2
2023-01-25T08:26:22.718Z,54
2023-01-25T08:27:23.777Z,53.7
2023-01-25T08:28:24.914Z,53.4
2023-01-25T08:29:25.869Z,53.1
2023-01-25T08:30:26.877Z,53
2023-01-25T08:31:27.740Z,53.1
2023-01-25T08:32:28.894Z,53.5
2023-01-25T08:33:29.775Z,53.4
2023-01-25T08:34:30.975Z,53.5
2023-01-25T08:35:31.931Z,53.4
2023-01-25T08:36:32.801Z,53.5
2023-01-25T08:37:33.759Z,53.9
2023-01-25T08:38:34.941Z,53.9
2023-01-25T08:39:35.824Z,53.6
2023-01-25T08:40:37.150Z,54.1
2023-01-25T08:41:38.419Z,54
2023-01-25T08:42:41.097Z,54.2
2023-01-25T08:43:41.905Z,54.2
2023-01-25T08:44:42.722Z,54.6
2023-01-25T08:45:43.677Z,54.7
2023-01-25T08:46:45.815Z,54.7
2023-01-25T08:47:46.751Z,54.5
2023-01-25T08:48:47.776Z,54.1
2023-01-25T08:49:48.963Z,54.4
2023-01-25T08:50:49.880Z,54.4
2023-01-25T08:51:50.914Z,54.4
2023-01-25T08:52:51.977Z,54.2
2023-01-25T08:53:52.938Z,53.9
2023-01-25T08:54:53.819Z,53.8
2023-01-25T08:55:54.876Z,53.8
2023-01-25T08:56:55.915Z,53.8
2023-01-25T08:57:57.576Z,53.8
2023-01-25T08:58:57.791Z,53.8
2023-01-25T08:59:58.953Z,54
2023-01-25T09:01:00.015Z,54.5
2023-01-25T09:02:00.813Z,55.1
2023-01-25T09:03:01.781Z,55.3
2023-01-25T09:04:03.005Z,55.4
2023-01-25T09:05:03.818Z,55.4
2023-01-25T09:06:04.754Z,55.5
2023-01-25T09:07:05.779Z,55.7
2023-01-25T09:08:07.737Z,55.8
2023-01-25T09:09:07.879Z,55.8
2023-01-25T09:10:09.335Z,55.5
2023-01-25T09:11:09.815Z,55.2
2023-01-25T09:12:10.923Z,54.9
2023-01-25T09:13:11.780Z,54.8
2023-01-25T09:14:12.864Z,54.9
2023-01-25T09:15:13.884Z,54.9
2023-01-25T09:16:14.732Z,54.9
2023-01-25T09:17:15.717Z,54.8
2023-01-25T09:18:16.701Z,55.3
2023-01-25T09:19:17.771Z,55.2
2023-01-25T09:20:18.838Z,55.2
2023-01-25T09:21:20.069Z,55.1
2023-01-25T09:22:20.897Z,55.2
2023-01-25T09:23:21.695Z,55.3
2023-01-25T09:24:22.874Z,55.1
2023-01-25T09:25:23.696Z,54.9
2023-01-25T09:26:24.747Z,54.9
2023-01-25T09:27:25.741Z,55
2023-01-25T09:28:26.718Z,54.9
2023-01-25T09:29:27.718Z,55.2
2023-01-25T09:30:41.046Z,55.6
2023-01-25T09:31:30.143Z,55.6
2023-01-25T09:32:30.862Z,55.6
2023-01-25T09:33:31.875Z,55.6
2023-01-25T09:34:32.811Z,55.5
2023-01-25T09:35:34.875Z,55.4
2023-01-25T09:36:35.880Z,55.4
2023-01-25T09:37:36.714Z,55
2023-01-25T09:38:37.893Z,54.7
2023-01-25T09:39:39.049Z,54.4
2023-01-25T09:40:39.954Z,54.2
2023-01-25T09:41:41.090Z,54.1
2023-01-25T09:42:41.745Z,54.1
2023-01-25T09:43:42.955Z,54
2023-01-25T09:44:43.854Z,53.9
2023-01-25T09:45:44.955Z,54
2023-01-25T09:46:45.898Z,54.4
2023-01-25T09:47:47.025Z,55.2
2023-01-25T09:48:50.157Z,55.8
2023-01-25T09:49:48.976Z,55.3
2023-01-25T09:50:49.935Z,55.5
2023-01-25T09:51:50.819Z,55.7
2023-01-25T09:52:51.758Z,55.8
2023-01-25T09:53:52.945Z,55.8
2023-01-25T09:54:53.954Z,55.5
2023-01-25T09:55:55.035Z,55.3
2023-01-25T09:56:55.915Z,55.2
2023-01-25T09:57:57.023Z,55.3
2023-01-25T09:58:57.895Z,55.3
2023-01-25T10:00:01.039Z,55.2
2023-01-25T10:01:00.035Z,54.8
2023-01-25T10:02:00.989Z,54.1
2023-01-25T10:03:02.100Z,53.9
2023-01-25T10:04:02.777Z,54
2023-01-25T10:05:03.839Z,54.1
2023-01-25T10:06:04.907Z,54.1
2023-01-25T10:07:05.837Z,54
2023-01-25T10:08:06.811Z,53.9
2023-01-25T10:09:07.993Z,53.7
2023-01-25T10:10:09.200Z,53.7
2023-01-25T10:11:10.043Z,53.7
2023-01-25T10:12:11.039Z,52.8
2023-01-25T10:13:11.794Z,52.9
2023-01-25T10:14:13.014Z,52.9
2023-01-25T10:15:14.035Z,52.7
2023-01-25T10:16:24.549Z,52.6
2023-01-25T10:17:15.798Z,52.8
2023-01-25T10:18:16.675Z,52.9
2023-01-25T10:19:17.955Z,53
2023-01-25T10:20:18.993Z,53.4
2023-01-25T10:21:20.031Z,53.5
2023-01-25T10:22:20.939Z,53.3
2023-01-25T10:23:21.954Z,53.1
2023-01-25T10:24:22.777Z,52.9
2023-01-25T10:25:23.703Z,52.5
2023-01-25T10:26:24.794Z,52.4
2023-01-25T10:27:25.894Z,52.5
2023-01-25T10:28:29.122Z,52.2
2023-01-25T10:29:27.765Z,52.6
2023-01-25T10:30:28.774Z,53.2
2023-01-25T10:31:30.122Z,53.7
2023-01-25T10:32:30.796Z,54
2023-01-25T10:33:32.521Z,54.6
2023-01-25T10:34:34.087Z,54.8
2023-01-25T10:35:36.296Z,55.1
2023-01-25T10:36:34.958Z,55.3
2023-01-25T10:37:35.921Z,55.3
2023-01-25T10:38:36.738Z,55.2
2023-01-25T10:39:37.784Z,54.8
2023-01-25T10:40:38.916Z,55.2
2023-01-25T10:41:39.730Z,55.2
2023-01-25T10:42:41.391Z,54.7
2023-01-25T10:43:42.905Z,54.5
2023-01-25T10:44:44.217Z,54.5
2023-01-25T10:45:46.003Z,54.2
2023-01-25T10:46:46.840Z,54.1
2023-01-25T10:47:47.837Z,54.1
2023-01-25T10:48:48.823Z,54.1
2023-01-25T10:49:49.855Z,54
2023-01-25T10:50:51.046Z,54.1
2023-01-25T10:51:51.973Z,54.1
2023-01-25T10:52:53.076Z,53.9
2023-01-25T10:53:53.936Z,53.3
2023-01-25T10:54:54.855Z,52.9
2023-01-25T10:55:55.901Z,52.5
2023-01-25T10:56:56.836Z,52.2
2023-01-25T10:57:57.863Z,51.8
2023-01-25T10:58:58.997Z,51.6
2023-01-25T10:59:59.993Z,51.6
2023-01-25T11:01:00.814Z,51.5
2023-01-25T11:02:01.860Z,51.6
2023-01-25T11:03:02.876Z,51.6
2023-01-25T11:04:04.084Z,51.5
2023-01-25T11:05:05.095Z,51.1
2023-01-25T11:06:05.878Z,51.2
2023-01-25T11:07:07.160Z,51.2
2023-01-25T11:08:07.846Z,51
2023-01-25T11:09:08.854Z,50.8
2023-01-25T11:10:10.169Z,50.6
2023-01-25T11:11:10.779Z,50.6
2023-01-25T11:12:11.834Z,50.7
2023-01-25T11:13:12.898Z,51
2023-01-25T11:14:13.974Z,51.2
2023-01-25T11:15:15.113Z,51.1
2023-01-25T11:16:16.121Z,51.2
2023-01-25T11:17:16.875Z,51.5
2023-01-25T11:18:17.758Z,51.5
2023-01-25T11:19:18.854Z,51.3
2023-01-25T11:20:19.775Z,51
2023-01-25T11:21:21.036Z,51.3
2023-01-25T11:22:22.276Z,51.2
2023-01-25T11:23:24.043Z,51.1
2023-01-25T11:24:25.034Z,50.9
2023-01-25T11:25:26.055Z,50.6
2023-01-25T11:26:27.019Z,50.5
2023-01-25T11:27:28.024Z,50.4
2023-01-25T11:28:28.974Z,50.3
2023-01-25T11:29:30.013Z,50.2
2023-01-25T11:30:31.067Z,50.4
2023-01-25T11:31:32.286Z,50.5
2023-01-25T11:32:32.977Z,50.7
2023-01-25T11:33:34.071Z,50.7
2023-01-25T11:34:34.875Z,51.1
2023-01-25T11:35:35.854Z,51.5
2023-01-25T11:36:36.837Z,51.6
2023-01-25T11:37:37.708Z,51.8
2023-01-25T11:38:38.939Z,52.1
2023-01-25T11:39:39.916Z,52.2
2023-01-25T11:40:41.187Z,52.5
2023-01-25T11:41:41.784Z,52.4
2023-01-25T11:42:42.941Z,52.1
2023-01-25T11:43:43.897Z,52
2023-01-25T11:44:44.722Z,51.9
2023-01-25T11:45:45.834Z,52
2023-01-25T11:46:46.898Z,52.3
2023-01-25T11:47:47.793Z,52.3
2023-01-25T11:48:48.836Z,52
2023-01-25T11:49:49.772Z,52.4
2023-01-25T11:50:50.835Z,52.7
2023-01-25T11:51:53.962Z,53
2023-01-25T11:52:52.943Z,53
2023-01-25T11:53:53.973Z,53.3
2023-01-25T11:54:54.975Z,53.4
2023-01-25T11:55:55.967Z,53.2
2023-01-25T11:56:56.870Z,53.4
2023-01-25T11:57:57.803Z,53.2
2023-01-25T11:58:58.971Z,53
2023-01-25T11:59:59.960Z,53
2023-01-25T12:01:00.927Z,52.8
2023-01-25T12:02:01.926Z,52.3
2023-01-25T12:03:02.991Z,52.1
2023-01-25T12:04:03.970Z,52
2023-01-25T12:05:09.632Z,52.1
2023-01-25T12:06:05.926Z,52.3
2023-01-25T12:07:06.826Z,52.1
2023-01-25T12:08:07.854Z,52
2023-01-25T12:09:08.870Z,51.9
2023-01-25T12:10:10.092Z,51.8
2023-01-25T12:11:10.806Z,51.7
2023-01-25T12:12:11.811Z,51.6
2023-01-25T12:13:12.842Z,51.5
2023-01-25T12:14:13.937Z,51.2
2023-01-25T12:15:14.898Z,50.9
2023-01-25T12:16:15.995Z,50.5
2023-01-25T12:17:16.788Z,50.1
2023-01-25T12:18:17.866Z,50.2
2023-01-25T12:19:18.966Z,50.1
2023-01-25T12:20:20.043Z,50.5
2023-01-25T12:21:30.702Z,51
2023-01-25T12:22:21.925Z,51.2
2023-01-25T12:23:22.797Z,51.2
2023-01-25T12:24:23.884Z,50.9
2023-01-25T12:25:24.845Z,51.1
2023-01-25T12:26:25.829Z,51.1
2023-01-25T12:27:26.795Z,50.7
2023-01-25T12:28:27.834Z,50.8
2023-01-25T12:29:28.965Z,50.9
2023-01-25T12:30:30.060Z,51
2023-01-25T12:31:30.977Z,51
2023-01-25T12:32:31.977Z,51.4
2023-01-25T12:33:32.947Z,51.6
2023-01-25T12:34:33.978Z,51.5
2023-01-25T12:35:34.952Z,51.4
2023-01-25T12:36:35.897Z,51.5
2023-01-25T12:37:36.866Z,51.3
2023-01-25T12:38:37.877Z,51.2
2023-01-25T12:39:38.891Z,51.2
2023-01-25T12:40:39.820Z,51.3
2023-01-25T12:41:41.423Z,51.4
2023-01-25T12:42:42.949Z,51.7
2023-01-25T12:43:43.994Z,51.8
2023-01-25T12:44:45.014Z,51.8
2023-01-25T12:45:46.119Z,51.9
2023-01-25T12:46:46.999Z,51.7
2023-01-25T12:47:48.057Z,51.7
2023-01-25T12:48:48.851Z,51.8
2023-01-25T12:49:49.851Z,51.8
2023-01-25T12:50:50.900Z,51.7
2023-01-25T12:51:51.863Z,51.6
2023-01-25T12:52:52.865Z,51.5
2023-01-25T12:53:53.939Z,51.5
2023-01-25T12:54:56.890Z,51.5
2023-01-25T12:55:56.059Z,51.3
2023-01-25T12:56:56.921Z,51.4
2023-01-25T12:57:57.879Z,51.4
2023-01-25T12:58:58.891Z,51.6
2023-01-25T13:00:00.093Z,51.8
2023-01-25T13:01:00.963Z,51.8
2023-01-25T13:02:01.949Z,51.6
2023-01-25T13:03:02.900Z,51.6
2023-01-25T13:04:04.039Z,51.7
2023-01-25T13:05:05.093Z,51.6
2023-01-25T13:06:05.978Z,51.5
2023-01-25T13:07:06.920Z,51.3
2023-01-25T13:08:07.905Z,51.2
2023-01-25T13:09:08.956Z,51.2
2023-01-25T13:10:10.408Z,51.1
2023-01-25T13:11:10.986Z,50.9
2023-01-25T13:12:12.104Z,50.9
2023-01-25T13:13:13.079Z,50.8
2023-01-25T13:14:13.998Z,50.8
2023-01-25T13:15:15.030Z,51
2023-01-25T13:16:16.109Z,51.4
2023-01-25T13:17:17.063Z,51.6
2023-01-25T13:18:17.887Z,51.6
2023-01-25T13:19:18.904Z,51.6
2023-01-25T13:20:19.860Z,51.6
2023-01-25T13:21:20.983Z,51.4
2023-01-25T13:22:21.906Z,51.2
2023-01-25T13:23:22.873Z,51.1
2023-01-25T13:24:24.097Z,51
2023-01-25T13:25:24.967Z,51.1
2023-01-25T13:26:26.071Z,51.1
2023-01-25T13:27:27.130Z,50.3
2023-01-25T13:28:28.101Z,50.8
2023-01-25T13:29:28.959Z,50.9
2023-01-25T13:30:30.044Z,51.1
2023-01-25T13:31:36.966Z,51
2023-01-25T13:32:32.063Z,50.9
2023-01-25T13:33:33.047Z,50.9
2023-01-25T13:34:34.038Z,50.8
2023-01-25T13:35:35.125Z,50.8
2023-01-25T13:36:36.093Z,50.7
2023-01-25T13:37:37.121Z,50.7
2023-01-25T13:38:38.080Z,49.8
2023-01-25T13:39:39.087Z,50.3